Time;durP1;ratioP1;P1;durP2;ratioP2;P2;SDS_P1;SDS_P2;PMS_P1;PMS_P2;Temp;Humidity;BMP_temperature;BMP_pressure;BME280_temperature;BME280_humidity;BME280_pressure;Samples;Min_cycle;Max_cycle;Signal;HPM_P1;HPM_P2
2023/04/05 00:00:14;;;;;;;8.45;4.93;;;2.30;1.00;;;;;;4902802;29;20238;-75
2023/04/05 00:02:42;;;;;;;5.38;3.95;;;2.20;1.00;;;;;;4910236;29;20734;-75
2023/04/05 00:05:10;;;;;;;8.52;4.97;;;2.10;1.00;;;;;;4904308;29;21032;-76
2023/04/05 00:07:38;;;;;;;8.10;5.03;;;2.00;1.00;;;;;;4906300;29;21133;-76
2023/04/05 00:10:05;;;;;;;4.10;3.70;;;1.90;1.00;;;;;;4907254;29;20238;-76
2023/04/05 00:12:32;;;;;;;6.20;4.25;;;1.90;1.00;;;;;;4905732;29;21162;-76
2023/04/05 00:14:59;;;;;;;5.25;4.55;;;2.00;1.00;;;;;;4910704;29;20336;-76
2023/04/05 00:17:28;;;;;;;6.05;4.57;;;1.90;1.00;;;;;;4911242;29;20257;-76
2023/04/05 00:20:00;;;;;;;6.05;4.47;;;1.90;1.00;;;;;;4905357;29;20242;-76
2023/04/05 00:22:34;;;;;;;7.78;5.32;;;1.90;1.00;;;;;;4911884;29;20246;-74
2023/04/05 00:25:01;;;;;;;8.10;4.65;;;2.00;1.00;;;;;;4917949;29;20288;-76
2023/04/05 00:27:28;;;;;;;7.88;4.65;;;2.00;1.00;;;;;;4916435;29;20255;-74
2023/04/05 00:29:56;;;;;;;7.60;4.20;;;2.00;1.00;;;;;;4915582;29;20996;-77
2023/04/05 00:32:24;;;;;;;6.63;4.00;;;2.00;1.00;;;;;;4910090;29;20870;-74
2023/04/05 00:34:51;;;;;;;5.93;3.85;;;2.00;1.00;;;;;;4911902;29;20253;-75
2023/04/05 00:37:19;;;;;;;5.63;4.03;;;2.00;1.00;;;;;;4909841;29;21090;-75
2023/04/05 00:39:47;;;;;;;8.15;4.38;;;1.90;1.00;;;;;;4912911;29;20321;-76
2023/04/05 00:42:16;;;;;;;5.75;4.18;;;1.90;1.00;;;;;;4912648;29;20245;-74
2023/04/05 00:44:43;;;;;;;7.43;4.70;;;1.90;1.00;;;;;;4911296;29;20249;-75
2023/04/05 00:47:10;;;;;;;5.30;4.25;;;1.90;1.00;;;;;;4909745;29;20320;-75
2023/04/05 00:52:22;;;;;;;7.65;4.97;;;2.00;1.00;;;;;;4909104;29;20253;-76
2023/04/05 00:54:50;;;;;;;4.20;3.78;;;2.00;1.00;;;;;;4891144;29;20245;-75
2023/04/05 00:57:18;;;;;;;6.20;4.30;;;2.00;1.00;;;;;;4902086;29;20246;-74
2023/04/05 00:59:45;;;;;;;5.97;3.92;;;1.90;1.00;;;;;;4912041;29;20245;-76
2023/04/05 01:02:17;;;;;;;6.55;4.55;;;1.90;1.00;;;;;;4906710;29;20238;-75
2023/04/05 01:04:48;;;;;;;5.40;4.50;;;1.90;1.00;;;;;;4911192;29;20341;-76
2023/04/05 01:07:25;;;;;;;7.55;4.70;;;1.90;1.00;;;;;;4909824;29;20238;-75
2023/04/05 01:09:56;;;;;;;4.80;4.30;;;1.90;1.00;;;;;;4913167;29;20269;-75
2023/04/05 01:12:28;;;;;;;6.13;4.35;;;1.90;1.00;;;;;;4912393;29;20344;-75
2023/04/05 01:14:55;;;;;;;7.43;3.88;;;1.90;1.00;;;;;;4912393;29;20298;-77
2023/04/05 01:17:26;;;;;;;6.50;4.15;;;1.90;1.00;;;;;;4907856;29;22531;-78
2023/04/05 01:19:58;;;;;;;4.13;3.72;;;1.80;1.00;;;;;;4905801;29;20249;-74
2023/04/05 01:23:08;;;;;;;4.70;3.53;;;1.90;1.00;;;;;;4906164;29;20329;-75
2023/04/05 01:26:02;;;;;;;5.55;4.38;;;1.90;1.00;;;;;;4907000;29;20249;-75
2023/04/05 01:28:49;;;;;;;6.18;3.95;;;1.80;1.00;;;;;;4907668;29;21212;-76
2023/04/05 01:31:29;;;;;;;5.65;3.97;;;1.90;1.00;;;;;;4910923;29;20265;-76
2023/04/05 01:34:04;;;;;;;4.35;3.95;;;1.80;1.00;;;;;;4909299;29;20250;-75
2023/04/05 01:36:44;;;;;;;5.25;4.47;;;1.80;1.00;;;;;;4913210;29;20241;-75
2023/04/05 01:39:15;;;;;;;5.88;4.85;;;1.80;1.00;;;;;;4911390;29;20238;-79
2023/04/05 01:41:43;;;;;;;6.85;4.65;;;1.80;1.00;;;;;;4913576;29;20718;-76
2023/04/05 01:44:10;;;;;;;5.15;4.40;;;1.90;1.00;;;;;;4906681;29;20267;-76
2023/04/05 01:46:39;;;;;;;7.05;4.13;;;1.90;1.00;;;;;;4908878;29;20238;-76
2023/04/05 01:49:06;;;;;;;4.90;3.75;;;1.90;1.00;;;;;;4908818;29;20241;-75
2023/04/05 01:51:33;;;;;;;4.75;3.70;;;1.80;1.00;;;;;;4908680;29;20242;-76
2023/04/05 01:54:00;;;;;;;7.18;3.80;;;1.80;1.00;;;;;;4910697;29;20241;-76
2023/04/05 01:56:27;;;;;;;8.57;4.57;;;1.80;1.00;;;;;;4913291;29;20345;-75
2023/04/05 01:58:56;;;;;;;6.03;4.50;;;1.90;1.00;;;;;;4911152;29;20372;-75
2023/04/05 02:01:23;;;;;;;4.85;4.18;;;1.90;1.00;;;;;;4906440;29;20242;-75
2023/04/05 02:03:53;;;;;;;8.30;4.13;;;2.00;1.00;;;;;;4908323;29;21029;-76
2023/04/05 02:06:23;;;;;;;5.78;3.75;;;2.00;1.00;;;;;;4911346;29;20349;-76
2023/04/05 02:08:50;;;;;;;7.57;4.50;;;2.00;1.00;;;;;;4913320;29;20253;-76
2023/04/05 02:11:17;;;;;;;5.47;4.38;;;2.10;1.00;;;;;;4908456;29;20246;-76
2023/04/05 02:13:43;;;;;;;4.65;3.78;;;2.10;1.00;;;;;;4909113;29;20365;-76
2023/04/05 02:16:10;;;;;;;6.25;4.75;;;2.10;1.00;;;;;;4909940;29;20730;-75
2023/04/05 02:18:38;;;;;;;8.45;3.80;;;2.10;1.00;;;;;;4909025;29;20261;-75
2023/04/05 02:21:09;;;;;;;4.35;3.80;;;2.10;1.00;;;;;;4911653;29;20337;-75
2023/04/05 02:23:37;;;;;;;7.05;4.05;;;2.20;1.00;;;;;;4911745;29;20321;-75
2023/04/05 02:26:06;;;;;;;9.25;4.00;;;2.20;1.00;;;;;;4911908;29;20242;-76
2023/04/05 02:28:34;;;;;;;7.80;3.80;;;2.30;1.00;;;;;;4908680;29;21175;-76
2023/04/05 02:31:01;;;;;;;5.97;3.72;;;2.40;1.00;;;;;;4910865;29;20275;-76
2023/04/05 02:33:28;;;;;;;5.38;3.65;;;2.50;1.00;;;;;;4906661;29;20325;-76
2023/04/05 02:35:56;;;;;;;4.97;3.40;;;2.50;1.00;;;;;;4911400;29;20246;-76
2023/04/05 02:38:24;;;;;;;5.32;3.55;;;2.50;1.00;;;;;;4908680;29;20314;-76
2023/04/05 02:40:54;;;;;;;8.10;3.53;;;2.60;1.00;;;;;;4905481;29;20242;-75
2023/04/05 02:43:21;;;;;;;9.20;4.10;;;2.50;1.00;;;;;;4907464;29;20246;-75
2023/04/05 02:45:48;;;;;;;5.57;3.63;;;2.50;1.00;;;;;;4910913;29;20252;-74
2023/04/05 02:48:15;;;;;;;9.52;3.60;;;2.60;1.00;;;;;;4910350;29;20237;-75
2023/04/05 02:50:42;;;;;;;5.25;3.58;;;2.60;1.00;;;;;;4910860;29;20359;-75
2023/04/05 02:53:09;;;;;;;7.10;3.58;;;2.70;1.00;;;;;;4893514;29;20246;-75
2023/04/05 02:55:40;;;;;;;9.60;4.63;;;2.70;1.00;;;;;;4911445;29;20360;-76
2023/04/05 02:58:09;;;;;;;6.05;3.67;;;2.80;1.00;;;;;;4911920;29;20246;-76
2023/04/05 03:00:36;;;;;;;5.38;3.28;;;2.80;1.00;;;;;;4907639;29;20249;-76
2023/04/05 03:03:04;;;;;;;8.60;3.90;;;2.90;1.00;;;;;;4908098;29;20329;-76
2023/04/05 03:05:30;;;;;;;6.65;3.90;;;2.90;1.00;;;;;;4909522;29;22551;-75
2023/04/05 03:07:58;;;;;;;7.45;4.00;;;3.00;1.00;;;;;;4913942;29;20256;-76
2023/04/05 03:10:27;;;;;;;6.25;3.53;;;3.10;1.00;;;;;;4909577;29;20242;-75
2023/04/05 03:12:57;;;;;;;8.00;4.47;;;3.10;1.00;;;;;;4914729;29;20252;-76
2023/04/05 03:15:24;;;;;;;6.20;3.70;;;3.20;1.00;;;;;;4911927;29;20931;-76
2023/04/05 03:17:51;;;;;;;8.43;4.85;;;3.20;1.00;;;;;;4909368;29;20257;-76
2023/04/05 03:20:18;;;;;;;8.55;5.45;;;3.20;1.00;;;;;;4908258;29;20326;-75
2023/04/05 03:22:45;;;;;;;5.57;3.20;;;3.30;1.00;;;;;;4907327;29;20330;-75
2023/04/05 03:25:13;;;;;;;6.85;3.90;;;3.40;1.00;;;;;;4910409;29;20238;-74
2023/04/05 03:27:42;;;;;;;5.47;4.93;;;3.40;1.00;;;;;;4909838;29;20973;-75
2023/04/05 03:30:12;;;;;;;5.95;4.97;;;3.40;1.00;;;;;;4911980;29;20269;-73
2023/04/05 03:32:43;;;;;;;11.25;4.25;;;3.40;1.00;;;;;;4908897;29;20234;-75
2023/04/05 03:35:12;;;;;;;6.55;5.50;;;3.50;1.00;;;;;;4909623;29;20328;-75
2023/04/05 03:37:39;;;;;;;5.95;4.38;;;3.50;1.00;;;;;;4911360;29;20234;-76
2023/04/05 03:40:09;;;;;;;5.95;4.18;;;3.50;1.00;;;;;;4909617;29;21233;-76
2023/04/05 03:42:37;;;;;;;4.50;4.10;;;3.50;1.00;;;;;;4909020;29;20242;-75
2023/04/05 03:45:05;;;;;;;6.43;4.60;;;3.40;1.00;;;;;;4908553;29;20242;-75
2023/04/05 03:47:34;;;;;;;9.25;4.60;;;3.50;1.00;;;;;;4914992;29;20333;-75
2023/04/05 03:50:01;;;;;;;8.55;5.13;;;3.50;1.00;;;;;;4905856;29;20241;-76
2023/04/05 03:52:30;;;;;;;7.82;5.43;;;3.50;1.00;;;;;;4903303;29;20246;-76
2023/04/05 03:54:57;;;;;;;5.95;5.35;;;3.60;1.00;;;;;;4893912;29;20241;-76
2023/04/05 03:57:24;;;;;;;6.82;4.32;;;3.60;1.00;;;;;;4914343;29;20241;-75
2023/04/05 03:59:51;;;;;;;10.98;9.57;;;3.60;1.00;;;;;;4915417;29;20249;-76
2023/04/05 04:02:18;;;;;;;6.97;4.95;;;3.60;1.00;;;;;;4911070;29;20242;-76
2023/04/05 04:04:46;;;;;;;9.05;4.85;;;3.70;1.00;;;;;;4908087;29;20218;-75
2023/04/05 04:07:14;;;;;;;7.20;5.60;;;3.70;1.00;;;;;;4912439;29;20245;-75
2023/04/05 04:09:41;;;;;;;9.10;5.65;;;3.70;1.00;;;;;;4915799;29;20328;-75
2023/04/05 04:12:09;;;;;;;9.05;4.95;;;3.80;1.00;;;;;;4908108;29;20233;-76
2023/04/05 04:14:36;;;;;;;9.82;5.15;;;3.80;1.00;;;;;;4914936;29;20246;-75
2023/04/05 04:17:03;;;;;;;6.15;4.43;;;3.90;1.00;;;;;;4908325;29;20281;-75
2023/04/05 04:19:30;;;;;;;6.45;5.75;;;3.90;1.00;;;;;;4907807;29;20222;-76
2023/04/05 04:21:58;;;;;;;7.90;4.57;;;3.90;1.00;;;;;;4904213;29;20246;-77
2023/04/05 04:24:25;;;;;;;4.45;4.05;;;4.00;1.00;;;;;;4911213;29;20318;-76
2023/04/05 04:26:53;;;;;;;6.70;4.38;;;4.00;1.00;;;;;;4914454;29;20232;-76
2023/04/05 04:29:29;;;;;;;8.65;4.63;;;3.90;1.00;;;;;;4917209;29;20353;-76
2023/04/05 04:31:59;;;;;;;6.30;4.70;;;3.90;1.00;;;;;;4914426;29;20778;-76
2023/04/05 04:34:29;;;;;;;6.85;5.22;;;3.90;1.00;;;;;;4916281;29;20242;-76
2023/04/05 04:37:00;;;;;;;6.63;5.05;;;4.00;1.00;;;;;;4914307;29;22071;-77
2023/04/05 04:39:30;;;;;;;8.55;4.22;;;3.90;1.00;;;;;;4909909;29;20845;-76
2023/04/05 04:41:58;;;;;;;7.28;5.57;;;4.00;1.00;;;;;;4918320;29;20253;-75
2023/04/05 04:44:31;;;;;;;8.45;4.85;;;4.10;1.00;;;;;;4893822;29;20250;-76
2023/04/05 04:46:58;;;;;;;11.65;5.68;;;4.10;1.00;;;;;;4912134;29;20250;-75
2023/04/05 04:49:27;;;;;;;10.00;5.50;;;4.20;1.00;;;;;;4914739;29;20243;-75
2023/04/05 04:51:54;;;;;;;6.90;4.90;;;4.20;1.00;;;;;;4915047;29;20244;-76
2023/04/05 04:54:22;;;;;;;7.80;5.55;;;4.30;1.00;;;;;;4907768;29;21086;-75
2023/04/05 04:56:50;;;;;;;11.23;5.70;;;4.30;1.00;;;;;;4913141;29;20314;-75
2023/04/05 04:59:17;;;;;;;74.35;55.42;;;4.30;1.00;;;;;;4915235;29;20334;-76
2023/04/05 05:01:45;;;;;;;10.18;6.30;;;4.30;1.00;;;;;;4911940;29;20369;-77
2023/04/05 05:04:12;;;;;;;9.48;5.35;;;4.30;1.00;;;;;;4912688;29;20254;-76
2023/04/05 05:06:39;;;;;;;11.43;5.55;;;4.30;1.00;;;;;;4911451;29;20246;-75
2023/04/05 05:09:06;;;;;;;8.35;5.72;;;4.30;1.00;;;;;;4910840;29;20317;-77
2023/04/05 05:11:35;;;;;;;10.25;4.93;;;4.30;1.00;;;;;;4913644;29;20294;-76
2023/04/05 05:14:02;;;;;;;7.95;4.28;;;4.30;1.00;;;;;;4915866;29;20293;-77
2023/04/05 05:16:29;;;;;;;11.32;5.80;;;4.40;1.00;;;;;;4912191;29;20404;-76
2023/04/05 05:18:56;;;;;;;6.03;4.95;;;4.40;1.00;;;;;;4912104;29;20250;-76
2023/04/05 05:21:23;;;;;;;8.88;4.88;;;4.40;1.00;;;;;;4913927;29;21094;-76
2023/04/05 05:23:51;;;;;;;10.88;6.50;;;4.40;1.00;;;;;;4912837;29;20893;-77
2023/04/05 05:26:18;;;;;;;10.35;5.82;;;4.50;1.00;;;;;;4910716;29;20282;-76
2023/04/05 05:28:48;;;;;;;8.05;5.00;;;4.60;1.00;;;;;;4915078;29;20357;-76
2023/04/05 05:31:16;;;;;;;6.13;4.43;;;4.60;1.00;;;;;;4910690;29;20246;-76
2023/04/05 05:33:44;;;;;;;10.48;6.53;;;4.60;1.00;;;;;;4910742;29;20242;-77
2023/04/05 05:36:11;;;;;;;12.55;6.97;;;4.60;1.00;;;;;;4913532;29;20242;-78
2023/04/05 05:38:38;;;;;;;7.03;4.60;;;4.60;1.00;;;;;;4910247;29;20238;-76
2023/04/05 05:41:07;;;;;;;6.05;4.30;;;4.60;1.00;;;;;;4906056;29;20269;-77
2023/04/05 05:43:34;;;;;;;7.00;5.00;;;4.50;1.00;;;;;;4909498;29;20744;-76
2023/04/05 05:46:02;;;;;;;10.23;5.90;;;4.50;1.00;;;;;;4912387;29;20238;-78
2023/04/05 05:48:29;;;;;;;10.65;6.60;;;4.60;1.00;;;;;;4910976;29;21148;-78
2023/04/05 05:51:00;;;;;;;7.00;5.60;;;4.60;1.00;;;;;;4912095;29;20235;-77
2023/04/05 05:53:27;;;;;;;8.30;4.68;;;4.60;1.00;;;;;;4910095;29;20800;-76
2023/04/05 05:55:54;;;;;;;6.13;4.30;;;4.60;1.00;;;;;;4915508;29;20828;-77
2023/04/05 05:58:21;;;;;;;5.50;4.53;;;4.70;1.00;;;;;;4909810;29;20234;-77
2023/04/05 06:00:50;;;;;;;4.50;3.50;;;4.60;1.00;;;;;;4911463;29;20751;-77
2023/04/05 06:03:20;;;;;;;6.78;5.00;;;4.60;1.00;;;;;;4905006;29;21035;-75
2023/04/05 06:05:51;;;;;;;7.70;4.70;;;4.70;1.00;;;;;;4905195;29;20244;-77
2023/04/05 06:08:18;;;;;;;6.30;4.47;;;4.80;1.00;;;;;;4899503;29;20246;-76
2023/04/05 06:10:45;;;;;;;10.15;4.90;;;4.90;1.00;;;;;;4907191;29;20274;-76
2023/04/05 06:13:12;;;;;;;32.88;18.13;;;5.00;1.00;;;;;;4910848;29;20245;-77
2023/04/05 06:15:39;;;;;;;5.22;4.07;;;5.10;1.00;;;;;;4914175;29;20243;-76
2023/04/05 06:18:06;;;;;;;12.25;5.22;;;5.20;1.00;;;;;;4913530;29;20254;-77
2023/04/05 06:20:39;;;;;;;4.90;4.40;;;5.30;1.00;;;;;;4917845;29;20296;-77
2023/04/05 06:23:06;;;;;;;5.63;4.88;;;5.30;1.00;;;;;;4914376;29;20323;-78
2023/04/05 06:25:33;;;;;;;5.88;4.10;;;5.30;1.00;;;;;;4912567;29;20268;-78
2023/04/05 06:28:00;;;;;;;11.57;5.35;;;5.30;1.00;;;;;;4915749;29;20243;-77
2023/04/05 06:30:27;;;;;;;12.27;5.65;;;5.30;1.00;;;;;;4904937;29;20238;-78
2023/04/05 06:32:55;;;;;;;10.55;5.40;;;5.30;1.00;;;;;;4907296;29;20238;-77
2023/04/05 06:35:22;;;;;;;12.18;5.45;;;5.40;1.00;;;;;;4917575;29;20271;-77
2023/04/05 06:37:51;;;;;;;9.95;4.80;;;5.40;1.00;;;;;;4915408;29;20248;-77
2023/04/05 06:40:19;;;;;;;9.70;5.10;;;5.50;1.00;;;;;;4913680;29;20306;-78
2023/04/05 06:42:47;;;;;;;6.18;4.50;;;5.60;1.00;;;;;;4920643;29;20238;-80
2023/04/05 07:15:49;;;;;;;7.77;5.27;;;6.60;1.00;;;;;;4584446;30;20553;-78
2023/04/05 07:18:27;;;;;;;9.40;6.43;;;6.70;1.00;;;;;;4661517;30;21091;-78
2023/04/05 07:21:11;;;;;;;7.53;5.55;;;6.80;1.00;;;;;;4743574;30;20307;-79
2023/04/05 07:23:45;;;;;;;9.60;5.57;;;6.90;1.00;;;;;;4752908;30;21003;-79
2023/04/05 07:26:18;;;;;;;7.75;5.85;;;7.10;1.00;;;;;;4741045;30;20485;-81
2023/04/05 07:29:00;;;;;;;10.38;6.70;;;7.20;1.00;;;;;;4737905;29;20249;-79
2023/04/05 07:31:27;;;;;;;9.73;7.38;;;7.20;1.00;;;;;;4732676;29;21834;-81
2023/04/05 07:33:56;;;;;;;11.18;6.97;;;7.50;1.00;;;;;;4838395;29;20346;-83
2023/04/05 07:36:23;;;;;;;8.07;5.90;;;7.70;1.00;;;;;;4834387;29;20256;-81
2023/04/05 07:38:50;;;;;;;10.80;5.63;;;7.80;1.00;;;;;;4836564;29;20450;-80
2023/04/05 07:41:18;;;;;;;13.37;6.70;;;7.80;1.00;;;;;;4850912;29;20560;-80
2023/04/05 07:43:46;;;;;;;10.17;6.73;;;8.10;1.00;;;;;;4866299;29;20464;-77
2023/04/05 07:46:13;;;;;;;7.97;6.03;;;8.10;1.00;;;;;;4910508;29;20613;-78
2023/04/05 07:48:40;;;;;;;11.63;6.90;;;8.20;1.00;;;;;;4920492;28;20458;-78
2023/04/05 07:51:10;;;;;;;8.83;6.03;;;8.20;1.00;;;;;;4912800;29;20818;-78
2023/04/05 07:53:37;;;;;;;7.20;5.67;;;8.20;1.00;;;;;;4909615;29;20562;-78
2023/04/05 07:56:05;;;;;;;9.20;6.00;;;8.30;1.00;;;;;;4914975;29;20517;-80
2023/04/05 07:58:32;;;;;;;10.18;5.00;;;8.00;1.00;;;;;;4919198;29;20463;-83
2023/04/05 08:01:00;;;;;;;9.07;6.00;;;7.70;1.00;;;;;;4916374;29;20829;-81
2023/04/05 08:03:27;;;;;;;8.23;4.67;;;7.60;1.00;;;;;;4918708;29;20238;-81
2023/04/05 08:05:54;;;;;;;6.77;5.50;;;7.70;1.00;;;;;;4906203;29;20502;-80
2023/04/05 08:08:25;;;;;;;8.55;4.50;;;7.70;1.00;;;;;;4907520;29;20560;-81
2023/04/05 08:10:52;;;;;;;7.40;4.90;;;7.60;1.00;;;;;;4909280;29;20980;-81
2023/04/05 08:13:20;;;;;;;7.85;5.95;;;7.70;1.00;;;;;;4907294;29;20474;-80
2023/04/05 08:15:46;;;;;;;7.20;4.70;;;7.70;1.00;;;;;;4909333;29;20327;-81
2023/04/05 08:18:13;;;;;;;6.85;3.67;;;7.70;1.00;;;;;;4901634;29;20721;-80
2023/04/05 08:20:41;;;;;;;6.40;3.85;;;7.80;1.00;;;;;;4905241;29;20325;-83
2023/04/05 08:23:08;;;;;;;7.40;4.40;;;7.90;1.00;;;;;;4908443;29;20674;-81
2023/04/05 08:25:41;;;;;;;6.25;4.35;;;7.80;1.00;;;;;;4891521;29;21133;-85
2023/04/05 08:28:13;;;;;;;7.32;4.63;;;7.60;1.00;;;;;;4917037;29;20239;-83
2023/04/05 08:30:41;;;;;;;7.20;5.80;;;7.70;1.00;;;;;;4916688;29;20252;-82
2023/04/05 08:33:08;;;;;;;7.10;5.20;;;7.80;1.00;;;;;;4916325;29;20483;-81
2023/04/05 08:35:37;;;;;;;7.88;5.57;;;7.90;1.00;;;;;;4917688;29;20338;-83
2023/04/05 08:38:04;;;;;;;5.70;4.50;;;8.00;1.00;;;;;;4914095;29;20595;-77
2023/04/05 08:40:40;;;;;;;5.60;4.93;;;8.20;1.00;;;;;;4914274;29;20285;-80
2023/04/05 08:43:12;;;;;;;5.43;4.80;;;8.30;1.00;;;;;;4922964;29;20488;-80
2023/04/05 08:45:50;;;;;;;5.87;4.03;;;8.40;1.00;;;;;;4922805;29;20489;-83
2023/04/05 08:48:18;;;;;;;5.68;4.63;;;8.30;1.00;;;;;;4919145;29;20485;-83
2023/04/05 08:50:51;;;;;;;7.73;4.97;;;8.40;1.00;;;;;;4920262;29;20266;-81
2023/04/05 08:53:18;;;;;;;6.57;4.80;;;8.50;1.00;;;;;;4921418;29;20431;-82
2023/04/05 08:55:48;;;;;;;9.43;5.10;;;8.60;1.00;;;;;;4918970;29;20520;-82
2023/04/05 08:58:16;;;;;;;7.03;4.47;;;8.70;1.00;;;;;;4918100;29;20538;-81
2023/04/05 09:00:43;;;;;;;6.13;4.30;;;9.00;1.00;;;;;;4912312;29;21123;-81
2023/04/05 09:03:16;;;;;;;7.33;4.70;;;9.30;1.00;;;;;;4922832;29;20463;-81
2023/04/05 09:05:46;;;;;;;8.63;4.87;;;9.70;1.00;;;;;;4919648;29;21278;-82
2023/04/05 09:08:14;;;;;;;5.67;5.10;;;10.10;1.00;;;;;;4913383;29;20481;-80
2023/04/05 09:10:41;;;;;;;7.90;4.40;;;10.40;1.00;;;;;;4917410;29;20490;-79
2023/04/05 09:13:10;;;;;;;5.87;4.00;;;10.50;1.00;;;;;;4916890;29;20438;-81
2023/04/05 09:15:38;;;;;;;6.50;4.37;;;10.60;1.00;;;;;;4916434;29;20479;-80
2023/04/05 09:18:05;;;;;;;4.23;3.83;;;10.70;1.00;;;;;;4916145;29;20469;-80
2023/04/05 09:20:32;;;;;;;5.80;4.10;;;10.70;1.00;;;;;;4914146;29;20475;-79
2023/04/05 09:23:00;;;;;;;3.60;3.13;;;10.80;1.00;;;;;;4918645;29;20516;-80
2023/04/05 09:25:38;;;;;;;11.73;4.97;;;11.10;1.00;;;;;;4924229;29;20486;-80
2023/04/05 09:28:08;;;;;;;3.70;3.23;;;11.40;1.00;;;;;;4923748;29;20938;-81
2023/04/05 09:30:38;;;;;;;4.77;3.37;;;12.50;1.00;;;;;;4921616;29;20516;-80
2023/04/05 09:33:09;;;;;;;6.70;4.07;;;13.40;1.00;;;;;;4916883;29;20466;-81
2023/04/05 09:35:37;;;;;;;4.80;3.40;;;14.10;1.00;;;;;;4920062;29;20479;-80
2023/04/05 09:38:05;;;;;;;4.63;2.90;;;15.30;1.00;;;;;;4919177;29;20566;-81
2023/04/05 09:40:43;;;;;;;4.07;2.73;;;16.60;1.00;;;;;;4918595;29;20487;-80
2023/04/05 09:43:12;;;;;;;6.50;3.97;;;17.70;1.00;;;;;;4920752;28;20473;-81
2023/04/05 09:45:47;;;;;;;9.40;4.33;;;17.50;1.00;;;;;;4885767;29;21287;-80
2023/04/05 09:48:14;;;;;;;5.10;3.30;;;17.50;1.00;;;;;;4913201;29;20463;-81
2023/04/05 09:50:41;;;;;;;4.27;3.10;;;17.50;1.00;;;;;;4924250;29;20455;-80
2023/04/05 09:53:14;;;;;;;5.03;3.57;;;16.70;1.00;;;;;;4922215;29;20563;-80
2023/04/05 09:55:41;;;;;;;4.80;3.73;;;16.30;1.00;;;;;;4917098;29;20484;-79
2023/04/05 09:58:12;;;;;;;4.23;3.10;;;16.50;1.00;;;;;;4918044;29;20543;-81
2023/04/05 10:00:51;;;;;;;3.80;2.80;;;16.60;1.00;;;;;;4917311;29;20986;-80
2023/04/05 10:03:18;;;;;;;3.50;3.20;;;17.10;1.00;;;;;;4918979;29;20451;-81
2023/04/05 10:05:46;;;;;;;6.90;3.70;;;17.70;1.00;;;;;;4916574;29;20566;-80
2023/04/05 10:08:14;;;;;;;5.30;3.73;;;17.40;1.00;;;;;;4915954;29;20947;-82
2023/04/05 10:10:50;;;;;;;3.67;3.30;;;16.70;1.00;;;;;;4917278;29;21367;-82
2023/04/05 10:13:19;;;;;;;4.63;3.50;;;17.60;1.00;;;;;;4916302;29;20554;-80
2023/04/05 10:15:51;;;;;;;4.00;3.40;;;18.50;1.00;;;;;;4919944;29;20529;-81
2023/04/05 10:18:21;;;;;;;5.00;3.40;;;19.10;1.00;;;;;;4916823;29;21071;-79
2023/04/05 10:20:53;;;;;;;5.20;2.83;;;19.30;1.00;;;;;;4915521;29;20456;-78
2023/04/05 10:23:25;;;;;;;4.10;3.00;;;19.10;1.00;;;;;;4915281;29;20461;-79
2023/04/05 10:26:02;;;;;;;6.00;4.10;;;17.80;1.00;;;;;;4913098;29;20454;-80
2023/04/05 10:28:34;;;;;;;9.03;3.70;;;16.70;1.00;;;;;;4922287;29;20970;-81
2023/04/05 10:31:12;;;;;;;9.20;3.57;;;15.70;1.00;;;;;;4920157;29;21089;-79
2023/04/05 10:33:44;;;;;;;11.03;3.90;;;14.90;1.00;;;;;;4918872;29;20417;-81
2023/04/05 10:36:21;;;;;;;4.53;3.57;;;14.70;1.00;;;;;;4920787;29;20489;-80
2023/04/05 10:39:00;;;;;;;4.63;3.20;;;14.50;1.00;;;;;;4915642;29;20458;-81
2023/04/05 10:41:35;;;;;;;5.57;3.93;;;14.80;1.00;;;;;;4917278;29;21043;-81
2023/04/05 10:44:04;;;;;;;3.97;3.57;;;15.20;1.00;;;;;;4918447;29;20540;-80
2023/04/05 10:46:32;;;;;;;7.90;4.73;;;15.30;1.00;;;;;;4921223;29;20561;-80
2023/04/05 10:49:03;;;;;;;6.87;3.87;;;15.60;1.00;;;;;;4918450;29;20473;-80
2023/04/05 10:51:33;;;;;;;6.33;4.73;;;15.40;1.00;;;;;;4918611;29;20482;-79
2023/04/05 10:54:01;;;;;;;6.27;3.63;;;14.00;1.00;;;;;;4916437;29;21046;-80
2023/04/05 10:56:29;;;;;;;5.70;3.83;;;13.00;1.00;;;;;;4915797;29;20493;-82
2023/04/05 10:58:58;;;;;;;6.00;3.80;;;12.60;1.00;;;;;;4918522;29;20448;-79
2023/04/05 11:01:26;;;;;;;6.23;3.53;;;12.20;1.00;;;;;;4914777;29;20645;-80
2023/04/05 11:03:54;;;;;;;6.13;3.73;;;12.10;1.00;;;;;;4917788;29;20444;-79
2023/04/05 11:06:24;;;;;;;5.70;4.87;;;12.00;1.00;;;;;;4915764;29;21106;-79
2023/04/05 11:08:54;;;;;;;8.30;3.60;;;11.90;1.00;;;;;;4911716;29;20498;-76
2023/04/05 11:11:22;;;;;;;6.70;3.97;;;11.80;1.00;;;;;;4911566;29;20492;-80
2023/04/05 11:13:54;;;;;;;5.17;3.63;;;11.80;1.00;;;;;;4911667;29;20459;-79
2023/04/05 11:16:21;;;;;;;4.53;3.83;;;11.70;1.00;;;;;;4916168;29;21345;-80
2023/04/05 11:18:50;;;;;;;7.43;4.27;;;11.90;1.00;;;;;;4915190;29;20459;-80
2023/04/05 11:21:26;;;;;;;4.50;3.53;;;11.90;1.00;;;;;;4916575;29;20468;-81
2023/04/05 11:24:06;;;;;;;3.97;3.33;;;11.80;1.00;;;;;;4916529;29;21290;-80
2023/04/05 11:26:53;;;;;;;6.07;5.20;;;11.90;1.00;;;;;;4915000;29;20502;-81
2023/04/05 11:29:46;;;;;;;5.50;4.53;;;12.40;1.00;;;;;;4914117;29;20475;-78
2023/04/05 11:32:13;;;;;;;11.83;5.67;;;12.90;1.00;;;;;;4911805;29;20494;-82
2023/04/05 11:34:42;;;;;;;5.63;3.27;;;13.60;1.00;;;;;;4909401;29;20600;-79
2023/04/05 11:37:12;;;;;;;3.70;3.30;;;14.90;1.00;;;;;;4909393;29;20537;-80
2023/04/05 11:39:40;;;;;;;4.07;3.43;;;15.40;1.00;;;;;;4911667;29;20465;-77
2023/04/05 11:42:11;;;;;;;7.37;4.07;;;15.40;1.00;;;;;;4905567;29;20474;-77
2023/04/05 11:44:46;;;;;;;6.00;3.90;;;15.90;1.00;;;;;;4904051;29;20459;-77
2023/04/05 11:47:17;;;;;;;6.70;4.40;;;15.70;1.00;;;;;;4906774;29;20577;-81
2023/04/05 11:49:46;;;;;;;6.50;4.17;;;15.20;1.00;;;;;;4908237;29;20614;-79
2023/04/05 11:52:16;;;;;;;6.20;4.83;;;15.20;1.00;;;;;;4910092;29;20604;-78
2023/04/05 11:54:45;;;;;;;7.53;4.57;;;14.90;1.00;;;;;;4914132;29;20570;-77
2023/04/05 11:57:14;;;;;;;7.50;4.60;;;14.30;1.00;;;;;;4889466;29;20484;-76
2023/04/05 11:59:42;;;;;;;4.70;4.30;;;13.70;1.00;;;;;;4908509;29;20913;-77
2023/04/05 12:02:10;;;;;;;6.83;4.40;;;13.10;1.00;;;;;;4907537;29;20941;-77
2023/04/05 12:04:37;;;;;;;5.30;3.70;;;12.70;1.00;;;;;;4905130;29;20456;-77
2023/04/05 12:07:26;;;;;;;6.60;5.67;;;12.40;1.00;;;;;;4905353;29;22556;-78
2023/04/05 12:10:01;;;;;;;5.20;4.00;;;12.20;1.00;;;;;;4913210;29;20542;-77
2023/04/05 12:12:32;;;;;;;7.10;3.50;;;11.80;1.00;;;;;;4911972;29;20970;-76
2023/04/05 12:15:00;;;;;;;3.87;3.57;;;11.50;1.00;;;;;;4918060;29;20514;-77
2023/04/05 12:17:45;;;;;;;6.70;4.00;;;11.40;1.00;;;;;;4919462;28;20461;-77
2023/04/05 12:20:15;;;;;;;8.30;3.93;;;11.40;1.00;;;;;;4920759;29;20470;-79
2023/04/05 12:22:47;;;;;;;8.90;4.43;;;11.50;1.00;;;;;;4915637;29;20556;-78
2023/04/05 12:25:15;;;;;;;5.73;3.97;;;11.70;1.00;;;;;;4916455;29;20478;-80
2023/04/05 12:27:42;;;;;;;5.20;4.23;;;12.10;1.00;;;;;;4916654;29;20483;-77
2023/04/05 12:30:15;;;;;;;3.43;3.13;;;12.60;1.00;;;;;;4919908;29;20526;-77
2023/04/05 12:32:44;;;;;;;4.00;3.60;;;13.00;1.00;;;;;;4919913;29;20471;-77
2023/04/05 12:35:12;;;;;;;5.70;4.07;;;13.20;1.00;;;;;;4921083;29;20974;-77
2023/04/05 12:37:40;;;;;;;9.17;4.93;;;13.10;1.00;;;;;;4923887;29;20473;-83
2023/04/05 12:40:10;;;;;;;5.07;3.87;;;13.20;1.00;;;;;;4929812;29;20552;-88
2023/04/05 12:42:39;;;;;;;4.90;4.40;;;13.70;1.00;;;;;;4926152;29;22319;-88
2023/04/05 12:45:11;;;;;;;7.63;4.50;;;14.60;1.00;;;;;;4925360;29;20457;-86
2023/04/05 12:47:49;;;;;;;4.70;3.47;;;15.40;1.00;;;;;;4926590;29;20493;-87
2023/04/05 12:50:18;;;;;;;5.60;3.87;;;15.60;1.00;;;;;;4921506;29;20426;-85
2023/04/05 12:52:58;;;;;;;4.83;3.10;;;15.20;1.00;;;;;;4927694;29;20454;-87
2023/04/05 12:55:28;;;;;;;6.63;4.43;;;14.80;1.00;;;;;;4923788;29;20561;-82
2023/04/05 12:57:58;;;;;;;3.33;3.07;;;14.70;1.00;;;;;;4921954;29;20514;-85
2023/04/05 13:00:30;;;;;;;7.60;4.50;;;15.20;1.00;;;;;;4925016;29;20465;-83
2023/04/05 13:02:59;;;;;;;5.40;4.03;;;15.20;1.00;;;;;;4928058;29;20882;-88
2023/04/05 13:05:27;;;;;;;5.07;4.00;;;15.10;1.00;;;;;;4924642;29;20473;-87
2023/04/05 13:07:54;;;;;;;4.47;4.03;;;14.90;1.00;;;;;;4926110;29;20511;-87
2023/04/05 13:10:23;;;;;;;4.10;3.20;;;14.50;1.00;;;;;;4919666;29;20442;-83
2023/04/05 13:12:52;;;;;;;5.40;3.50;;;14.20;1.00;;;;;;4917465;29;21411;-85
2023/04/05 13:15:19;;;;;;;5.13;3.60;;;14.10;1.00;;;;;;4918758;29;20526;-86
2023/04/05 13:17:48;;;;;;;5.83;3.90;;;14.30;1.00;;;;;;4917347;29;21060;-88
2023/04/05 13:20:17;;;;;;;5.50;3.80;;;14.80;1.00;;;;;;4901642;29;21337;-87
2023/04/05 13:22:44;;;;;;;6.10;3.60;;;14.90;1.00;;;;;;4918313;29;20434;-88
2023/04/05 13:25:12;;;;;;;7.20;4.20;;;14.60;1.00;;;;;;4914617;29;20907;-88
2023/04/05 13:27:39;;;;;;;7.63;3.53;;;14.40;1.00;;;;;;4907791;29;20546;-86
2023/04/05 13:30:08;;;;;;;7.73;3.63;;;14.50;1.00;;;;;;4920302;29;20538;-88
2023/04/05 13:32:35;;;;;;;4.47;3.53;;;14.70;1.00;;;;;;4921307;29;20429;-87
2023/04/05 13:35:04;;;;;;;4.80;3.80;;;15.20;1.00;;;;;;4923592;29;20521;-89
2023/04/05 13:37:31;;;;;;;8.40;3.50;;;15.20;1.00;;;;;;4923369;29;20454;-88
2023/04/05 13:39:58;;;;;;;5.63;3.60;;;14.60;1.00;;;;;;4925607;29;20512;-87
2023/04/05 13:42:27;;;;;;;8.00;4.73;;;14.00;1.00;;;;;;4918551;29;20433;-89
2023/04/05 13:44:54;;;;;;;6.37;3.80;;;13.90;1.00;;;;;;4925571;29;20489;-88
2023/04/05 13:47:22;;;;;;;3.43;3.10;;;13.70;1.00;;;;;;4929586;29;20472;-89